sensor_id;sensor_type;location;lat;lon;timestamp;P1;durP1;ratioP1;P2;durP2;ratioP2
11675;SDS011;5894;42.768;23.404;2023-12-07T00:02:21;16.40;;;11.07;;
11675;SDS011;5894;42.768;23.404;2023-12-07T00:04:48;14.90;;;10.80;;
11675;SDS011;5894;42.768;23.404;2023-12-07T00:07:15;14.97;;;11.03;;
11675;SDS011;5894;42.768;23.404;2023-12-07T00:09:44;15.03;;;10.97;;
11675;SDS011;5894;42.768;23.404;2023-12-07T00:12:11;15.63;;;10.60;;
11675;SDS011;5894;42.768;23.404;2023-12-07T00:14:38;11.90;;;9.40;;
11675;SDS011;5894;42.768;23.404;2023-12-07T00:17:05;14.43;;;10.00;;
11675;SDS011;5894;42.768;23.404;2023-12-07T00:19:32;13.87;;;9.67;;
11675;SDS011;5894;42.768;23.404;2023-12-07T00:21:59;14.97;;;11.33;;
11675;SDS011;5894;42.768;23.404;2023-12-07T00:24:26;22.20;;;14.00;;
11675;SDS011;5894;42.768;23.404;2023-12-07T00:26:54;20.87;;;13.73;;
11675;SDS011;5894;42.768;23.404;2023-12-07T00:29:21;19.17;;;12.63;;
11675;SDS011;5894;42.768;23.404;2023-12-07T00:31:49;16.77;;;11.20;;
11675;SDS011;5894;42.768;23.404;2023-12-07T00:34:17;15.10;;;11.17;;
11675;SDS011;5894;42.768;23.404;2023-12-07T00:36:44;13.63;;;10.37;;
11675;SDS011;5894;42.768;23.404;2023-12-07T00:39:11;14.23;;;10.63;;
11675;SDS011;5894;42.768;23.404;2023-12-07T00:41:38;19.53;;;12.70;;
11675;SDS011;5894;42.768;23.404;2023-12-07T00:44:06;18.50;;;12.60;;
11675;SDS011;5894;42.768;23.404;2023-12-07T00:46:33;17.30;;;11.57;;
11675;SDS011;5894;42.768;23.404;2023-12-07T00:49:00;15.67;;;11.47;;
11675;SDS011;5894;42.768;23.404;2023-12-07T00:51:27;15.50;;;12.20;;
11675;SDS011;5894;42.768;23.404;2023-12-07T00:53:54;16.27;;;12.00;;
11675;SDS011;5894;42.768;23.404;2023-12-07T00:56:21;17.37;;;12.03;;
11675;SDS011;5894;42.768;23.404;2023-12-07T00:58:48;17.13;;;12.37;;
11675;SDS011;5894;42.768;23.404;2023-12-07T01:01:16;18.07;;;12.00;;
11675;SDS011;5894;42.768;23.404;2023-12-07T01:03:43;17.83;;;11.93;;
11675;SDS011;5894;42.768;23.404;2023-12-07T01:06:10;17.60;;;12.57;;
11675;SDS011;5894;42.768;23.404;2023-12-07T01:08:37;18.47;;;12.70;;
11675;SDS011;5894;42.768;23.404;2023-12-07T01:11:05;17.53;;;12.03;;
11675;SDS011;5894;42.768;23.404;2023-12-07T01:13:32;17.97;;;11.87;;
11675;SDS011;5894;42.768;23.404;2023-12-07T01:15:59;18.00;;;11.70;;
11675;SDS011;5894;42.768;23.404;2023-12-07T01:18:27;15.20;;;11.30;;
11675;SDS011;5894;42.768;23.404;2023-12-07T01:20:54;18.53;;;12.43;;
11675;SDS011;5894;42.768;23.404;2023-12-07T01:23:21;19.07;;;12.77;;
11675;SDS011;5894;42.768;23.404;2023-12-07T01:25:48;19.97;;;13.63;;
11675;SDS011;5894;42.768;23.404;2023-12-07T01:28:15;22.20;;;14.53;;
11675;SDS011;5894;42.768;23.404;2023-12-07T01:30:41;22.57;;;14.00;;
11675;SDS011;5894;42.768;23.404;2023-12-07T01:33:08;27.00;;;16.57;;
11675;SDS011;5894;42.768;23.404;2023-12-07T01:35:37;29.47;;;17.77;;
11675;SDS011;5894;42.768;23.404;2023-12-07T01:38:04;25.73;;;16.37;;
11675;SDS011;5894;42.768;23.404;2023-12-07T01:40:31;23.80;;;15.97;;
11675;SDS011;5894;42.768;23.404;2023-12-07T01:42:58;23.83;;;15.77;;
11675;SDS011;5894;42.768;23.404;2023-12-07T01:45:25;23.50;;;14.40;;
11675;SDS011;5894;42.768;23.404;2023-12-07T01:47:52;16.80;;;13.03;;
11675;SDS011;5894;42.768;23.404;2023-12-07T01:50:22;17.90;;;12.80;;
11675;SDS011;5894;42.768;23.404;2023-12-07T01:52:52;17.43;;;12.60;;
11675;SDS011;5894;42.768;23.404;2023-12-07T01:55:23;15.30;;;11.43;;
11675;SDS011;5894;42.768;23.404;2023-12-07T01:57:52;15.87;;;12.17;;
11675;SDS011;5894;42.768;23.404;2023-12-07T02:00:19;16.47;;;11.83;;
11675;SDS011;5894;42.768;23.404;2023-12-07T02:02:47;17.27;;;11.80;;
11675;SDS011;5894;42.768;23.404;2023-12-07T02:05:14;17.27;;;12.13;;
11675;SDS011;5894;42.768;23.404;2023-12-07T02:07:41;21.30;;;13.57;;
11675;SDS011;5894;42.768;23.404;2023-12-07T02:10:10;22.90;;;13.67;;
11675;SDS011;5894;42.768;23.404;2023-12-07T02:12:38;18.27;;;12.00;;
11675;SDS011;5894;42.768;23.404;2023-12-07T02:15:06;13.80;;;10.97;;
11675;SDS011;5894;42.768;23.404;2023-12-07T02:17:38;15.83;;;11.63;;
11675;SDS011;5894;42.768;23.404;2023-12-07T02:20:13;14.63;;;10.50;;
11675;SDS011;5894;42.768;23.404;2023-12-07T02:22:48;24.07;;;15.43;;
11675;SDS011;5894;42.768;23.404;2023-12-07T02:25:22;23.93;;;14.47;;
11675;SDS011;5894;42.768;23.404;2023-12-07T02:27:54;21.20;;;14.20;;
11675;SDS011;5894;42.768;23.404;2023-12-07T02:30:21;20.33;;;12.77;;
11675;SDS011;5894;42.768;23.404;2023-12-07T02:32:48;21.67;;;13.40;;
11675;SDS011;5894;42.768;23.404;2023-12-07T02:35:15;18.87;;;13.37;;
11675;SDS011;5894;42.768;23.404;2023-12-07T02:37:43;20.77;;;13.13;;
11675;SDS011;5894;42.768;23.404;2023-12-07T02:40:12;20.67;;;13.40;;
11675;SDS011;5894;42.768;23.404;2023-12-07T02:42:44;22.53;;;13.10;;
11675;SDS011;5894;42.768;23.404;2023-12-07T02:45:14;19.63;;;12.90;;
11675;SDS011;5894;42.768;23.404;2023-12-07T02:47:41;21.20;;;12.93;;
11675;SDS011;5894;42.768;23.404;2023-12-07T02:50:10;17.00;;;11.33;;
11675;SDS011;5894;42.768;23.404;2023-12-07T02:52:38;17.33;;;12.10;;
11675;SDS011;5894;42.768;23.404;2023-12-07T02:55:05;18.07;;;12.80;;
11675;SDS011;5894;42.768;23.404;2023-12-07T02:57:33;19.00;;;13.33;;
11675;SDS011;5894;42.768;23.404;2023-12-07T03:00:00;23.20;;;14.17;;
11675;SDS011;5894;42.768;23.404;2023-12-07T03:02:33;19.27;;;13.77;;
11675;SDS011;5894;42.768;23.404;2023-12-07T03:05:01;18.17;;;13.60;;
11675;SDS011;5894;42.768;23.404;2023-12-07T03:07:28;17.67;;;12.27;;
11675;SDS011;5894;42.768;23.404;2023-12-07T03:09:55;16.47;;;11.10;;
11675;SDS011;5894;42.768;23.404;2023-12-07T03:12:22;27.33;;;14.57;;
11675;SDS011;5894;42.768;23.404;2023-12-07T03:14:49;32.60;;;15.93;;
11675;SDS011;5894;42.768;23.404;2023-12-07T03:17:16;41.50;;;21.17;;
11675;SDS011;5894;42.768;23.404;2023-12-07T03:19:45;31.83;;;18.57;;
11675;SDS011;5894;42.768;23.404;2023-12-07T03:22:12;30.23;;;18.33;;
11675;SDS011;5894;42.768;23.404;2023-12-07T03:24:40;28.93;;;17.00;;
11675;SDS011;5894;42.768;23.404;2023-12-07T03:27:10;28.77;;;16.93;;
11675;SDS011;5894;42.768;23.404;2023-12-07T03:29:37;28.60;;;17.17;;
11675;SDS011;5894;42.768;23.404;2023-12-07T03:32:04;31.90;;;17.47;;
11675;SDS011;5894;42.768;23.404;2023-12-07T03:34:32;29.70;;;17.93;;
11675;SDS011;5894;42.768;23.404;2023-12-07T03:37:00;30.60;;;17.43;;
11675;SDS011;5894;42.768;23.404;2023-12-07T03:39:28;30.17;;;17.90;;
11675;SDS011;5894;42.768;23.404;2023-12-07T03:41:57;35.73;;;18.50;;
11675;SDS011;5894;42.768;23.404;2023-12-07T03:44:25;37.87;;;18.37;;
11675;SDS011;5894;42.768;23.404;2023-12-07T03:46:52;27.60;;;15.50;;
11675;SDS011;5894;42.768;23.404;2023-12-07T03:49:18;23.33;;;15.17;;
11675;SDS011;5894;42.768;23.404;2023-12-07T03:51:45;26.53;;;13.53;;
11675;SDS011;5894;42.768;23.404;2023-12-07T03:54:13;19.87;;;13.27;;
11675;SDS011;5894;42.768;23.404;2023-12-07T03:56:40;18.80;;;12.07;;
11675;SDS011;5894;42.768;23.404;2023-12-07T03:59:07;15.50;;;10.87;;
11675;SDS011;5894;42.768;23.404;2023-12-07T04:01:35;14.33;;;10.00;;
11675;SDS011;5894;42.768;23.404;2023-12-07T04:04:02;15.97;;;10.87;;
11675;SDS011;5894;42.768;23.404;2023-12-07T04:06:30;13.53;;;9.93;;
11675;SDS011;5894;42.768;23.404;2023-12-07T04:08:57;14.83;;;10.73;;
11675;SDS011;5894;42.768;23.404;2023-12-07T04:11:25;13.10;;;9.90;;
11675;SDS011;5894;42.768;23.404;2023-12-07T04:13:52;14.70;;;11.10;;
11675;SDS011;5894;42.768;23.404;2023-12-07T04:16:19;14.90;;;10.90;;
11675;SDS011;5894;42.768;23.404;2023-12-07T04:18:46;14.57;;;10.77;;
11675;SDS011;5894;42.768;23.404;2023-12-07T04:21:13;17.00;;;12.20;;
11675;SDS011;5894;42.768;23.404;2023-12-07T04:23:40;21.00;;;14.10;;
11675;SDS011;5894;42.768;23.404;2023-12-07T04:26:07;27.33;;;17.03;;
11675;SDS011;5894;42.768;23.404;2023-12-07T04:28:35;24.60;;;17.77;;
11675;SDS011;5894;42.768;23.404;2023-12-07T04:31:03;23.47;;;16.17;;
11675;SDS011;5894;42.768;23.404;2023-12-07T04:33:31;29.70;;;18.23;;
11675;SDS011;5894;42.768;23.404;2023-12-07T04:35:58;33.60;;;20.13;;
11675;SDS011;5894;42.768;23.404;2023-12-07T04:38:25;30.60;;;19.97;;
11675;SDS011;5894;42.768;23.404;2023-12-07T04:40:52;24.57;;;15.40;;
11675;SDS011;5894;42.768;23.404;2023-12-07T04:43:19;18.33;;;12.63;;
11675;SDS011;5894;42.768;23.404;2023-12-07T04:45:47;15.47;;;10.97;;
11675;SDS011;5894;42.768;23.404;2023-12-07T04:48:14;12.20;;;9.77;;
11675;SDS011;5894;42.768;23.404;2023-12-07T04:50:41;12.83;;;9.50;;
11675;SDS011;5894;42.768;23.404;2023-12-07T04:53:08;12.13;;;9.37;;
11675;SDS011;5894;42.768;23.404;2023-12-07T04:55:35;12.13;;;9.20;;
11675;SDS011;5894;42.768;23.404;2023-12-07T04:58:02;11.20;;;8.67;;
11675;SDS011;5894;42.768;23.404;2023-12-07T05:00:29;11.67;;;8.07;;
11675;SDS011;5894;42.768;23.404;2023-12-07T05:02:57;11.47;;;8.10;;
11675;SDS011;5894;42.768;23.404;2023-12-07T05:05:24;10.10;;;7.73;;
11675;SDS011;5894;42.768;23.404;2023-12-07T05:07:51;12.63;;;7.60;;
11675;SDS011;5894;42.768;23.404;2023-12-07T05:10:18;9.63;;;7.77;;
11675;SDS011;5894;42.768;23.404;2023-12-07T05:12:45;9.30;;;7.30;;
11675;SDS011;5894;42.768;23.404;2023-12-07T05:15:12;10.77;;;7.77;;
11675;SDS011;5894;42.768;23.404;2023-12-07T05:17:39;9.33;;;7.93;;
11675;SDS011;5894;42.768;23.404;2023-12-07T05:20:08;11.30;;;7.50;;
11675;SDS011;5894;42.768;23.404;2023-12-07T05:22:37;11.63;;;8.03;;
11675;SDS011;5894;42.768;23.404;2023-12-07T05:25:05;11.13;;;8.87;;
11675;SDS011;5894;42.768;23.404;2023-12-07T05:27:32;12.10;;;9.17;;
11675;SDS011;5894;42.768;23.404;2023-12-07T05:29:59;12.70;;;8.27;;
11675;SDS011;5894;42.768;23.404;2023-12-07T05:32:26;13.07;;;8.70;;
11675;SDS011;5894;42.768;23.404;2023-12-07T05:34:54;10.67;;;8.30;;
11675;SDS011;5894;42.768;23.404;2023-12-07T05:37:22;10.73;;;8.30;;
11675;SDS011;5894;42.768;23.404;2023-12-07T05:39:49;11.40;;;8.57;;
11675;SDS011;5894;42.768;23.404;2023-12-07T05:42:16;12.23;;;8.90;;
11675;SDS011;5894;42.768;23.404;2023-12-07T05:44:44;11.67;;;9.13;;
11675;SDS011;5894;42.768;23.404;2023-12-07T05:47:11;11.97;;;9.67;;
11675;SDS011;5894;42.768;23.404;2023-12-07T05:49:38;13.03;;;9.50;;
11675;SDS011;5894;42.768;23.404;2023-12-07T05:52:05;18.60;;;12.30;;
11675;SDS011;5894;42.768;23.404;2023-12-07T05:54:33;30.97;;;16.73;;
11675;SDS011;5894;42.768;23.404;2023-12-07T05:57:00;28.30;;;15.57;;
11675;SDS011;5894;42.768;23.404;2023-12-07T05:59:28;25.90;;;16.27;;
11675;SDS011;5894;42.768;23.404;2023-12-07T06:01:55;26.90;;;16.33;;
11675;SDS011;5894;42.768;23.404;2023-12-07T06:04:22;44.73;;;20.53;;
11675;SDS011;5894;42.768;23.404;2023-12-07T06:06:49;64.60;;;23.87;;
11675;SDS011;5894;42.768;23.404;2023-12-07T06:09:16;70.93;;;26.83;;
11675;SDS011;5894;42.768;23.404;2023-12-07T06:11:44;49.17;;;23.70;;
11675;SDS011;5894;42.768;23.404;2023-12-07T06:14:11;48.60;;;23.93;;
11675;SDS011;5894;42.768;23.404;2023-12-07T06:16:38;38.07;;;20.73;;
11675;SDS011;5894;42.768;23.404;2023-12-07T06:19:05;29.20;;;18.70;;
11675;SDS011;5894;42.768;23.404;2023-12-07T06:21:33;46.80;;;27.33;;
11675;SDS011;5894;42.768;23.404;2023-12-07T06:24:00;31.93;;;20.93;;
11675;SDS011;5894;42.768;23.404;2023-12-07T06:26:26;25.30;;;17.37;;
11675;SDS011;5894;42.768;23.404;2023-12-07T06:28:55;26.60;;;19.37;;
11675;SDS011;5894;42.768;23.404;2023-12-07T06:31:24;27.33;;;18.73;;
11675;SDS011;5894;42.768;23.404;2023-12-07T06:33:51;26.00;;;18.60;;
11675;SDS011;5894;42.768;23.404;2023-12-07T06:36:19;30.93;;;20.13;;
11675;SDS011;5894;42.768;23.404;2023-12-07T06:38:46;29.57;;;19.90;;
11675;SDS011;5894;42.768;23.404;2023-12-07T06:41:14;33.40;;;21.23;;
11675;SDS011;5894;42.768;23.404;2023-12-07T06:43:42;28.67;;;18.83;;
11675;SDS011;5894;42.768;23.404;2023-12-07T06:46:11;26.67;;;19.07;;
11675;SDS011;5894;42.768;23.404;2023-12-07T06:48:39;25.63;;;19.03;;
11675;SDS011;5894;42.768;23.404;2023-12-07T06:51:06;27.77;;;18.40;;
11675;SDS011;5894;42.768;23.404;2023-12-07T06:53:33;23.57;;;16.13;;
11675;SDS011;5894;42.768;23.404;2023-12-07T06:56:00;24.60;;;16.97;;
11675;SDS011;5894;42.768;23.404;2023-12-07T06:58:27;22.13;;;16.47;;
11675;SDS011;5894;42.768;23.404;2023-12-07T07:00:54;19.87;;;16.13;;
11675;SDS011;5894;42.768;23.404;2023-12-07T07:03:22;24.50;;;16.13;;
11675;SDS011;5894;42.768;23.404;2023-12-07T07:05:49;20.80;;;15.87;;
11675;SDS011;5894;42.768;23.404;2023-12-07T07:08:17;26.73;;;18.30;;
11675;SDS011;5894;42.768;23.404;2023-12-07T07:10:44;30.93;;;20.10;;
11675;SDS011;5894;42.768;23.404;2023-12-07T07:13:12;24.90;;;17.90;;
11675;SDS011;5894;42.768;23.404;2023-12-07T07:15:41;22.37;;;16.07;;
11675;SDS011;5894;42.768;23.404;2023-12-07T07:18:08;20.50;;;15.73;;
11675;SDS011;5894;42.768;23.404;2023-12-07T07:20:37;22.83;;;15.63;;
11675;SDS011;5894;42.768;23.404;2023-12-07T07:23:04;24.73;;;17.30;;
11675;SDS011;5894;42.768;23.404;2023-12-07T07:25:31;27.13;;;18.20;;
11675;SDS011;5894;42.768;23.404;2023-12-07T07:27:58;20.27;;;14.03;;
11675;SDS011;5894;42.768;23.404;2023-12-07T07:30:25;18.57;;;12.53;;
11675;SDS011;5894;42.768;23.404;2023-12-07T07:32:53;19.43;;;12.53;;
11675;SDS011;5894;42.768;23.404;2023-12-07T07:35:20;20.27;;;13.40;;
11675;SDS011;5894;42.768;23.404;2023-12-07T07:37:48;20.83;;;13.93;;
11675;SDS011;5894;42.768;23.404;2023-12-07T07:40:15;27.67;;;20.37;;
11675;SDS011;5894;42.768;23.404;2023-12-07T07:42:42;24.67;;;17.17;;
11675;SDS011;5894;42.768;23.404;2023-12-07T07:45:10;25.67;;;16.07;;
11675;SDS011;5894;42.768;23.404;2023-12-07T07:47:36;22.00;;;14.90;;
11675;SDS011;5894;42.768;23.404;2023-12-07T07:50:04;18.77;;;13.63;;
11675;SDS011;5894;42.768;23.404;2023-12-07T07:52:32;14.83;;;11.17;;
11675;SDS011;5894;42.768;23.404;2023-12-07T07:55:02;16.90;;;11.50;;
11675;SDS011;5894;42.768;23.404;2023-12-07T07:57:29;15.23;;;10.97;;
11675;SDS011;5894;42.768;23.404;2023-12-07T07:59:57;13.53;;;9.83;;
11675;SDS011;5894;42.768;23.404;2023-12-07T08:02:24;11.47;;;8.40;;
11675;SDS011;5894;42.768;23.404;2023-12-07T08:04:51;12.30;;;8.53;;
11675;SDS011;5894;42.768;23.404;2023-12-07T08:07:18;9.33;;;7.40;;
11675;SDS011;5894;42.768;23.404;2023-12-07T08:09:45;9.07;;;7.07;;
11675;SDS011;5894;42.768;23.404;2023-12-07T08:12:13;8.93;;;6.73;;
11675;SDS011;5894;42.768;23.404;2023-12-07T08:14:41;8.97;;;6.60;;
11675;SDS011;5894;42.768;23.404;2023-12-07T08:17:09;12.67;;;6.50;;
11675;SDS011;5894;42.768;23.404;2023-12-07T08:19:36;9.20;;;6.93;;
11675;SDS011;5894;42.768;23.404;2023-12-07T08:22:03;11.07;;;6.73;;
11675;SDS011;5894;42.768;23.404;2023-12-07T08:24:30;10.83;;;7.40;;
11675;SDS011;5894;42.768;23.404;2023-12-07T08:26:57;11.33;;;7.37;;
11675;SDS011;5894;42.768;23.404;2023-12-07T08:29:26;9.70;;;6.20;;
11675;SDS011;5894;42.768;23.404;2023-12-07T08:31:53;12.63;;;6.23;;
11675;SDS011;5894;42.768;23.404;2023-12-07T08:34:20;8.33;;;6.30;;
11675;SDS011;5894;42.768;23.404;2023-12-07T08:36:47;10.43;;;5.80;;
11675;SDS011;5894;42.768;23.404;2023-12-07T08:39:14;8.03;;;5.73;;
11675;SDS011;5894;42.768;23.404;2023-12-07T08:41:40;7.50;;;5.50;;
11675;SDS011;5894;42.768;23.404;2023-12-07T08:44:07;8.03;;;5.23;;
11675;SDS011;5894;42.768;23.404;2023-12-07T08:46:36;6.67;;;5.27;;
11675;SDS011;5894;42.768;23.404;2023-12-07T08:49:03;7.77;;;5.20;;
11675;SDS011;5894;42.768;23.404;2023-12-07T08:51:30;6.97;;;4.90;;
11675;SDS011;5894;42.768;23.404;2023-12-07T08:53:57;5.87;;;4.60;;
11675;SDS011;5894;42.768;23.404;2023-12-07T08:56:24;5.13;;;4.63;;
11675;SDS011;5894;42.768;23.404;2023-12-07T08:58:51;6.17;;;4.57;;
11675;SDS011;5894;42.768;23.404;2023-12-07T09:01:18;6.23;;;4.67;;
11675;SDS011;5894;42.768;23.404;2023-12-07T09:03:46;5.50;;;4.53;;
11675;SDS011;5894;42.768;23.404;2023-12-07T09:06:13;6.67;;;4.20;;
11675;SDS011;5894;42.768;23.404;2023-12-07T09:08:40;5.00;;;4.17;;
11675;SDS011;5894;42.768;23.404;2023-12-07T09:11:07;7.53;;;4.70;;
11675;SDS011;5894;42.768;23.404;2023-12-07T09:13:34;5.53;;;4.57;;
11675;SDS011;5894;42.768;23.404;2023-12-07T09:16:02;6.40;;;4.67;;
11675;SDS011;5894;42.768;23.404;2023-12-07T09:18:29;7.00;;;4.50;;
11675;SDS011;5894;42.768;23.404;2023-12-07T09:20:57;13.00;;;4.80;;
11675;SDS011;5894;42.768;23.404;2023-12-07T09:23:24;5.87;;;3.87;;
11675;SDS011;5894;42.768;23.404;2023-12-07T09:25:51;5.90;;;4.30;;
11675;SDS011;5894;42.768;23.404;2023-12-07T09:28:18;5.77;;;4.30;;
11675;SDS011;5894;42.768;23.404;2023-12-07T09:30:45;4.50;;;3.60;;
11675;SDS011;5894;42.768;23.404;2023-12-07T09:33:12;5.77;;;3.90;;
11675;SDS011;5894;42.768;23.404;2023-12-07T09:35:39;6.07;;;3.83;;
11675;SDS011;5894;42.768;23.404;2023-12-07T09:38:07;6.33;;;3.93;;
11675;SDS011;5894;42.768;23.404;2023-12-07T09:40:35;6.63;;;3.70;;
11675;SDS011;5894;42.768;23.404;2023-12-07T09:43:02;5.27;;;3.70;;
11675;SDS011;5894;42.768;23.404;2023-12-07T09:45:29;6.20;;;3.00;;
11675;SDS011;5894;42.768;23.404;2023-12-07T09:47:56;6.10;;;3.67;;
11675;SDS011;5894;42.768;23.404;2023-12-07T09:50:25;3.63;;;2.90;;
11675;SDS011;5894;42.768;23.404;2023-12-07T09:52:54;4.50;;;2.80;;
11675;SDS011;5894;42.768;23.404;2023-12-07T09:55:24;4.30;;;2.80;;
11675;SDS011;5894;42.768;23.404;2023-12-07T09:57:51;4.03;;;2.90;;
11675;SDS011;5894;42.768;23.404;2023-12-07T10:00:20;3.73;;;2.50;;
11675;SDS011;5894;42.768;23.404;2023-12-07T10:02:47;2.73;;;2.27;;
11675;SDS011;5894;42.768;23.404;2023-12-07T10:05:15;3.90;;;2.83;;
11675;SDS011;5894;42.768;23.404;2023-12-07T10:07:43;2.80;;;2.47;;
11675;SDS011;5894;42.768;23.404;2023-12-07T10:10:11;3.97;;;2.67;;
11675;SDS011;5894;42.768;23.404;2023-12-07T10:12:45;5.13;;;2.30;;
11675;SDS011;5894;42.768;23.404;2023-12-07T10:15:13;3.53;;;2.37;;
11675;SDS011;5894;42.768;23.404;2023-12-07T10:17:47;4.83;;;3.53;;
11675;SDS011;5894;42.768;23.404;2023-12-07T10:20:16;4.33;;;3.07;;
11675;SDS011;5894;42.768;23.404;2023-12-07T10:22:44;4.67;;;2.73;;
11675;SDS011;5894;42.768;23.404;2023-12-07T10:25:12;5.33;;;2.20;;
11675;SDS011;5894;42.768;23.404;2023-12-07T10:27:40;3.03;;;2.10;;
11675;SDS011;5894;42.768;23.404;2023-12-07T10:30:12;3.43;;;1.90;;
11675;SDS011;5894;42.768;23.404;2023-12-07T10:32:39;3.37;;;2.33;;
11675;SDS011;5894;42.768;23.404;2023-12-07T10:35:07;3.97;;;2.23;;
11675;SDS011;5894;42.768;23.404;2023-12-07T10:37:35;2.97;;;2.37;;
11675;SDS011;5894;42.768;23.404;2023-12-07T10:40:02;3.77;;;3.03;;
11675;SDS011;5894;42.768;23.404;2023-12-07T10:42:33;3.30;;;2.60;;
11675;SDS011;5894;42.768;23.404;2023-12-07T10:45:03;3.17;;;2.40;;
11675;SDS011;5894;42.768;23.404;2023-12-07T10:47:34;3.50;;;2.23;;
11675;SDS011;5894;42.768;23.404;2023-12-07T10:50:02;3.13;;;2.20;;
11675;SDS011;5894;42.768;23.404;2023-12-07T10:52:36;2.23;;;1.97;;
11675;SDS011;5894;42.768;23.404;2023-12-07T10:55:07;2.67;;;2.27;;
11675;SDS011;5894;42.768;23.404;2023-12-07T10:57:37;2.80;;;2.10;;
11675;SDS011;5894;42.768;23.404;2023-12-07T11:00:05;2.70;;;2.27;;
11675;SDS011;5894;42.768;23.404;2023-12-07T11:02:35;2.47;;;2.13;;
11675;SDS011;5894;42.768;23.404;2023-12-07T11:05:04;2.30;;;1.90;;
11675;SDS011;5894;42.768;23.404;2023-12-07T11:07:36;2.60;;;1.90;;
11675;SDS011;5894;42.768;23.404;2023-12-07T11:10:11;2.03;;;1.60;;
11675;SDS011;5894;42.768;23.404;2023-12-07T11:12:46;2.83;;;1.63;;
11675;SDS011;5894;42.768;23.404;2023-12-07T11:15:17;1.93;;;1.53;;
11675;SDS011;5894;42.768;23.404;2023-12-07T11:17:51;1.77;;;1.57;;
11675;SDS011;5894;42.768;23.404;2023-12-07T11:20:20;1.90;;;1.60;;
11675;SDS011;5894;42.768;23.404;2023-12-07T11:22:47;2.07;;;1.60;;
11675;SDS011;5894;42.768;23.404;2023-12-07T11:25:16;3.13;;;1.87;;
11675;SDS011;5894;42.768;23.404;2023-12-07T11:27:45;2.53;;;1.73;;
11675;SDS011;5894;42.768;23.404;2023-12-07T11:30:16;1.93;;;1.60;;
11675;SDS011;5894;42.768;23.404;2023-12-07T11:32:44;2.27;;;1.80;;
11675;SDS011;5894;42.768;23.404;2023-12-07T11:35:13;1.87;;;1.30;;
11675;SDS011;5894;42.768;23.404;2023-12-07T11:38:00;2.23;;;1.60;;
11675;SDS011;5894;42.768;23.404;2023-12-07T11:40:31;2.33;;;1.70;;
11675;SDS011;5894;42.768;23.404;2023-12-07T11:42:59;2.37;;;1.60;;
11675;SDS011;5894;42.768;23.404;2023-12-07T11:45:36;2.00;;;1.60;;
11675;SDS011;5894;42.768;23.404;2023-12-07T11:48:07;1.93;;;1.60;;
11675;SDS011;5894;42.768;23.404;2023-12-07T11:50:36;1.77;;;1.60;;
11675;SDS011;5894;42.768;23.404;2023-12-07T11:53:21;2.03;;;1.80;;
11675;SDS011;5894;42.768;23.404;2023-12-07T11:55:49;2.07;;;1.77;;
11675;SDS011;5894;42.768;23.404;2023-12-07T11:58:16;2.27;;;1.60;;
11675;SDS011;5894;42.768;23.404;2023-12-07T12:00:43;1.60;;;1.50;;
11675;SDS011;5894;42.768;23.404;2023-12-07T12:03:12;1.87;;;1.50;;
11675;SDS011;5894;42.768;23.404;2023-12-07T12:05:40;2.30;;;1.60;;
11675;SDS011;5894;42.768;23.404;2023-12-07T12:08:09;1.47;;;1.37;;
11675;SDS011;5894;42.768;23.404;2023-12-07T12:10:36;2.80;;;1.60;;
11675;SDS011;5894;42.768;23.404;2023-12-07T12:13:03;3.23;;;1.80;;
11675;SDS011;5894;42.768;23.404;2023-12-07T12:15:30;1.93;;;1.73;;
11675;SDS011;5894;42.768;23.404;2023-12-07T12:17:58;2.80;;;2.10;;
11675;SDS011;5894;42.768;23.404;2023-12-07T12:20:26;2.93;;;2.10;;
11675;SDS011;5894;42.768;23.404;2023-12-07T12:22:55;2.80;;;2.27;;
11675;SDS011;5894;42.768;23.404;2023-12-07T12:25:22;3.93;;;1.80;;
11675;SDS011;5894;42.768;23.404;2023-12-07T12:27:52;2.40;;;2.00;;
11675;SDS011;5894;42.768;23.404;2023-12-07T12:30:20;3.37;;;2.10;;
11675;SDS011;5894;42.768;23.404;2023-12-07T12:32:48;2.37;;;1.97;;
11675;SDS011;5894;42.768;23.404;2023-12-07T12:35:15;2.80;;;2.50;;
11675;SDS011;5894;42.768;23.404;2023-12-07T12:37:43;4.03;;;2.87;;
11675;SDS011;5894;42.768;23.404;2023-12-07T12:40:13;3.13;;;2.30;;
11675;SDS011;5894;42.768;23.404;2023-12-07T12:42:44;2.20;;;1.93;;
11675;SDS011;5894;42.768;23.404;2023-12-07T12:45:12;2.17;;;1.90;;
11675;SDS011;5894;42.768;23.404;2023-12-07T12:47:40;3.50;;;1.87;;
11675;SDS011;5894;42.768;23.404;2023-12-07T12:50:08;2.60;;;2.20;;
11675;SDS011;5894;42.768;23.404;2023-12-07T12:52:36;2.10;;;1.90;;
11675;SDS011;5894;42.768;23.404;2023-12-07T12:55:07;1.97;;;1.60;;
11675;SDS011;5894;42.768;23.404;2023-12-07T12:57:37;2.73;;;1.90;;
11675;SDS011;5894;42.768;23.404;2023-12-07T13:00:05;2.20;;;1.73;;
11675;SDS011;5894;42.768;23.404;2023-12-07T13:02:33;2.00;;;1.60;;
11675;SDS011;5894;42.768;23.404;2023-12-07T13:05:00;2.30;;;1.70;;
11675;SDS011;5894;42.768;23.404;2023-12-07T13:07:28;1.93;;;1.70;;
11675;SDS011;5894;42.768;23.404;2023-12-07T13:09:54;2.30;;;2.00;;
11675;SDS011;5894;42.768;23.404;2023-12-07T13:12:21;2.13;;;1.93;;
11675;SDS011;5894;42.768;23.404;2023-12-07T13:14:50;4.80;;;2.37;;
11675;SDS011;5894;42.768;23.404;2023-12-07T13:17:17;2.53;;;2.10;;
11675;SDS011;5894;42.768;23.404;2023-12-07T13:19:44;2.53;;;2.07;;
11675;SDS011;5894;42.768;23.404;2023-12-07T13:22:11;2.13;;;1.87;;
11675;SDS011;5894;42.768;23.404;2023-12-07T13:24:38;3.00;;;2.20;;
11675;SDS011;5894;42.768;23.404;2023-12-07T13:27:05;6.00;;;3.97;;
11675;SDS011;5894;42.768;23.404;2023-12-07T13:29:32;7.80;;;5.27;;
11675;SDS011;5894;42.768;23.404;2023-12-07T13:32:00;7.23;;;5.07;;
11675;SDS011;5894;42.768;23.404;2023-12-07T13:34:27;4.27;;;3.53;;
11675;SDS011;5894;42.768;23.404;2023-12-07T13:36:54;4.27;;;3.60;;
11675;SDS011;5894;42.768;23.404;2023-12-07T13:39:21;3.77;;;2.87;;
11675;SDS011;5894;42.768;23.404;2023-12-07T13:41:48;3.00;;;2.30;;
11675;SDS011;5894;42.768;23.404;2023-12-07T13:44:17;3.97;;;2.10;;
11675;SDS011;5894;42.768;23.404;2023-12-07T13:46:44;4.90;;;3.83;;
11675;SDS011;5894;42.768;23.404;2023-12-07T13:49:12;4.73;;;3.33;;
11675;SDS011;5894;42.768;23.404;2023-12-07T13:51:40;3.00;;;2.40;;
11675;SDS011;5894;42.768;23.404;2023-12-07T13:54:07;2.67;;;2.30;;
11675;SDS011;5894;42.768;23.404;2023-12-07T13:56:34;2.83;;;2.10;;
11675;SDS011;5894;42.768;23.404;2023-12-07T13:59:02;2.47;;;2.27;;
11675;SDS011;5894;42.768;23.404;2023-12-07T14:01:31;2.67;;;2.30;;
11675;SDS011;5894;42.768;23.404;2023-12-07T14:03:58;2.47;;;2.20;;
11675;SDS011;5894;42.768;23.404;2023-12-07T14:06:28;3.67;;;2.50;;
11675;SDS011;5894;42.768;23.404;2023-12-07T14:08:55;4.67;;;3.00;;
11675;SDS011;5894;42.768;23.404;2023-12-07T14:11:22;5.87;;;3.33;;
11675;SDS011;5894;42.768;23.404;2023-12-07T14:13:49;5.17;;;3.47;;
11675;SDS011;5894;42.768;23.404;2023-12-07T14:16:19;6.20;;;3.70;;
11675;SDS011;5894;42.768;23.404;2023-12-07T14:18:46;3.60;;;2.97;;
11675;SDS011;5894;42.768;23.404;2023-12-07T14:21:13;4.27;;;3.30;;
11675;SDS011;5894;42.768;23.404;2023-12-07T14:23:47;4.53;;;3.20;;
11675;SDS011;5894;42.768;23.404;2023-12-07T14:26:14;6.90;;;3.30;;
11675;SDS011;5894;42.768;23.404;2023-12-07T14:28:41;4.93;;;3.47;;
11675;SDS011;5894;42.768;23.404;2023-12-07T14:31:08;4.73;;;3.60;;
11675;SDS011;5894;42.768;23.404;2023-12-07T14:33:41;5.60;;;4.13;;
11675;SDS011;5894;42.768;23.404;2023-12-07T14:36:10;5.73;;;4.17;;
11675;SDS011;5894;42.768;23.404;2023-12-07T14:38:38;4.07;;;3.47;;